Etusivu
METAR-TAF:

METAR-TAF

Lentoasemat :

Nueva Loja, Ecuador

Leveyspiiri: 00-05-33N, Pituuspiiri: 076-52-10W, korkeus merenpinnasta: 299 m

Tämänhetkinen sää

Tämä raportti tehtiin 42 minuuttia sitten, kello 20.00 UTC
Tuuli 5 kn lounaasta
Lämpötila 32°C
Kosteus 63%
Ilmanpaine 1009 hPa
Näkyvyys 10 km tai enemmän
Muutamia pilviä 2000 ft:n korkeudessa
Hajanaisia pilviä 10000 ft:n korkeudessa

METAR: SENL 122000Z 22005KT 9999 FEW020 SCT100 32/24 Q1009 RMK A2981

Aika: 15:42 (20:42 UTC)


TAF: puuttuu

Säähavainnot ja -ennusteet yli 4000 lentoasemalta (METAR- ja TAF-raportit).

Käytössä olevat sääasemat on merkitty karttaan keltaisilla ja punaisilla pisteillä.

Aseta hiiri pisteen päälle nähdäksesi sääaseman nimen.

Klikkaa sitten nähdäksesi säähavainnot ja -ennusteet.

Kartan vaihtaminen: klikkaa mustalla rastilla varustettuja vihreitä pisteitä, niin voit zoomata sisään; viivalla varustettua vihreää pistettä, niin voit zoomata ulos tai vihreitä nuolia, niin pääset viereisille kartoille.


METAR-TAF: